Terminal Aerodrome Forecast
Issued by NWS Sterling, VA

Current Version | Previous Version | Text Only | Print | Product List | Glossary Off
Versions: 1 2 3 4 5 6 7 8 9 10 11 12 13 14 15 16 17 18 19 20 21 22 23 24 25

000
FTUS41 KLWX 262000 AAA
TAFIAD
TAF AMD
KIAD 262059Z 2621/2724 02007KT 3/4SM -SN BR OVC009
     FM262200 01010G19KT 1SM -SN OVC008
     FM270800 34010KT 5SM -SN BR OVC010
     FM271400 33012G20KT P6SM OVC015
     FM271900 32013G22KT P6SM BKN040 BKN060=

USA.gov is the U.S. government's official web portal to all federal, state and local government web resources and services.